sensor_id;sensor_type;location;lat;lon;timestamp;temperature;humidity
55091;DHT22;40985;53.180;5.800;2023-05-10T00:02:09;11.60;99.90
55091;DHT22;40985;53.180;5.800;2023-05-10T00:04:34;11.60;99.90
55091;DHT22;40985;53.180;5.800;2023-05-10T00:07:00;11.60;99.90
55091;DHT22;40985;53.180;5.800;2023-05-10T00:09:27;11.40;99.90
55091;DHT22;40985;53.180;5.800;2023-05-10T00:11:52;11.50;99.90
55091;DHT22;40985;53.180;5.800;2023-05-10T00:14:18;11.50;99.90
55091;DHT22;40985;53.180;5.800;2023-05-10T00:16:44;11.50;99.90
55091;DHT22;40985;53.180;5.800;2023-05-10T00:19:10;11.40;99.90
55091;DHT22;40985;53.180;5.800;2023-05-10T00:21:35;11.50;99.90
55091;DHT22;40985;53.180;5.800;2023-05-10T00:24:01;11.40;99.90
55091;DHT22;40985;53.180;5.800;2023-05-10T00:26:27;11.50;99.90
55091;DHT22;40985;53.180;5.800;2023-05-10T00:28:52;11.40;99.90
55091;DHT22;40985;53.180;5.800;2023-05-10T00:31:18;11.30;99.90
55091;DHT22;40985;53.180;5.800;2023-05-10T00:33:44;11.40;99.90
55091;DHT22;40985;53.180;5.800;2023-05-10T00:36:09;11.30;99.90
55091;DHT22;40985;53.180;5.800;2023-05-10T00:38:35;11.30;99.90
55091;DHT22;40985;53.180;5.800;2023-05-10T00:41:01;11.30;99.90
55091;DHT22;40985;53.180;5.800;2023-05-10T00:43:27;11.30;99.90
55091;DHT22;40985;53.180;5.800;2023-05-10T00:45:53;11.30;99.90
55091;DHT22;40985;53.180;5.800;2023-05-10T00:48:19;11.40;99.90
55091;DHT22;40985;53.180;5.800;2023-05-10T00:50:45;11.30;99.90
55091;DHT22;40985;53.180;5.800;2023-05-10T00:53:11;11.20;99.90
55091;DHT22;40985;53.180;5.800;2023-05-10T00:55:37;11.40;99.90
55091;DHT22;40985;53.180;5.800;2023-05-10T00:58:04;11.40;99.90
55091;DHT22;40985;53.180;5.800;2023-05-10T01:00:30;11.20;99.90
55091;DHT22;40985;53.180;5.800;2023-05-10T01:02:55;11.40;99.90
55091;DHT22;40985;53.180;5.800;2023-05-10T01:05:21;11.30;99.90
55091;DHT22;40985;53.180;5.800;2023-05-10T01:07:47;11.30;99.90
55091;DHT22;40985;53.180;5.800;2023-05-10T01:10:13;11.20;99.90
55091;DHT22;40985;53.180;5.800;2023-05-10T01:12:41;11.30;99.90
55091;DHT22;40985;53.180;5.800;2023-05-10T01:15:08;11.10;99.90
55091;DHT22;40985;53.180;5.800;2023-05-10T01:17:38;11.20;99.90
55091;DHT22;40985;53.180;5.800;2023-05-10T01:20:06;11.10;99.90
55091;DHT22;40985;53.180;5.800;2023-05-10T01:32:03;11.30;99.90
55091;DHT22;40985;53.180;5.800;2023-05-10T01:34:46;11.20;99.90
55091;DHT22;40985;53.180;5.800;2023-05-10T01:37:22;11.30;99.90
55091;DHT22;40985;53.180;5.800;2023-05-10T01:39:58;11.10;99.90
55091;DHT22;40985;53.180;5.800;2023-05-10T01:42:28;11.10;99.90
55091;DHT22;40985;53.180;5.800;2023-05-10T01:45:11;11.20;99.90
55091;DHT22;40985;53.180;5.800;2023-05-10T01:47:45;11.20;99.90
55091;DHT22;40985;53.180;5.800;2023-05-10T01:50:18;11.20;99.90
55091;DHT22;40985;53.180;5.800;2023-05-10T01:52:51;11.20;99.90
55091;DHT22;40985;53.180;5.800;2023-05-10T01:55:20;11.40;99.90
55091;DHT22;40985;53.180;5.800;2023-05-10T01:57:48;11.20;99.90
55091;DHT22;40985;53.180;5.800;2023-05-10T02:00:16;11.40;99.90
55091;DHT22;40985;53.180;5.800;2023-05-10T02:02:48;11.40;99.90
55091;DHT22;40985;53.180;5.800;2023-05-10T02:05:16;11.20;99.90
55091;DHT22;40985;53.180;5.800;2023-05-10T02:07:43;11.40;99.90
55091;DHT22;40985;53.180;5.800;2023-05-10T02:10:11;11.20;99.90
55091;DHT22;40985;53.180;5.800;2023-05-10T02:12:41;11.10;99.90
55091;DHT22;40985;53.180;5.800;2023-05-10T02:15:07;11.30;99.90
55091;DHT22;40985;53.180;5.800;2023-05-10T02:17:35;11.40;99.90
55091;DHT22;40985;53.180;5.800;2023-05-10T02:20:04;11.30;99.90
55091;DHT22;40985;53.180;5.800;2023-05-10T02:22:30;11.20;99.90
55091;DHT22;40985;53.180;5.800;2023-05-10T02:24:58;11.20;99.90
55091;DHT22;40985;53.180;5.800;2023-05-10T02:27:24;11.20;99.90
55091;DHT22;40985;53.180;5.800;2023-05-10T02:29:51;11.20;99.90
55091;DHT22;40985;53.180;5.800;2023-05-10T02:32:17;11.20;99.90
55091;DHT22;40985;53.180;5.800;2023-05-10T02:34:45;11.20;99.90
55091;DHT22;40985;53.180;5.800;2023-05-10T02:37:13;11.20;99.90
55091;DHT22;40985;53.180;5.800;2023-05-10T02:39:40;11.30;99.90
55091;DHT22;40985;53.180;5.800;2023-05-10T02:42:17;11.20;99.90
55091;DHT22;40985;53.180;5.800;2023-05-10T02:44:46;11.40;99.90
55091;DHT22;40985;53.180;5.800;2023-05-10T02:47:13;11.40;99.90
55091;DHT22;40985;53.180;5.800;2023-05-10T02:49:39;11.40;99.90
55091;DHT22;40985;53.180;5.800;2023-05-10T02:52:05;11.40;99.90
55091;DHT22;40985;53.180;5.800;2023-05-10T02:54:41;11.30;99.90
55091;DHT22;40985;53.180;5.800;2023-05-10T02:57:10;11.20;99.90
55091;DHT22;40985;53.180;5.800;2023-05-10T02:59:36;11.40;99.90
55091;DHT22;40985;53.180;5.800;2023-05-10T03:02:03;11.40;99.90
55091;DHT22;40985;53.180;5.800;2023-05-10T03:04:29;11.40;99.90
55091;DHT22;40985;53.180;5.800;2023-05-10T03:06:55;11.10;99.90
55091;DHT22;40985;53.180;5.800;2023-05-10T03:09:21;11.30;99.90
55091;DHT22;40985;53.180;5.800;2023-05-10T03:17:22;11.20;99.90
55091;DHT22;40985;53.180;5.800;2023-05-10T03:19:57;11.30;99.90
55091;DHT22;40985;53.180;5.800;2023-05-10T03:22:36;11.10;99.90
55091;DHT22;40985;53.180;5.800;2023-05-10T03:25:06;11.20;99.90
55091;DHT22;40985;53.180;5.800;2023-05-10T03:27:32;11.30;99.90
55091;DHT22;40985;53.180;5.800;2023-05-10T03:29:59;11.20;99.90
55091;DHT22;40985;53.180;5.800;2023-05-10T03:32:29;11.10;99.90
55091;DHT22;40985;53.180;5.800;2023-05-10T03:34:55;11.20;99.90
55091;DHT22;40985;53.180;5.800;2023-05-10T03:37:21;11.20;99.90
55091;DHT22;40985;53.180;5.800;2023-05-10T03:39:47;11.00;99.90
55091;DHT22;40985;53.180;5.800;2023-05-10T03:42:12;11.10;99.90
55091;DHT22;40985;53.180;5.800;2023-05-10T03:44:41;11.20;99.90
55091;DHT22;40985;53.180;5.800;2023-05-10T03:47:07;11.10;99.90
55091;DHT22;40985;53.180;5.800;2023-05-10T03:49:32;11.00;99.90
55091;DHT22;40985;53.180;5.800;2023-05-10T03:51:58;11.00;99.90
55091;DHT22;40985;53.180;5.800;2023-05-10T03:54:23;11.00;99.90
55091;DHT22;40985;53.180;5.800;2023-05-10T03:56:49;11.00;99.90
55091;DHT22;40985;53.180;5.800;2023-05-10T03:59:15;11.20;99.90
55091;DHT22;40985;53.180;5.800;2023-05-10T04:01:40;11.20;99.90
55091;DHT22;40985;53.180;5.800;2023-05-10T04:04:06;11.00;99.90
55091;DHT22;40985;53.180;5.800;2023-05-10T04:06:32;11.10;99.90
55091;DHT22;40985;53.180;5.800;2023-05-10T04:08:58;11.10;99.90
55091;DHT22;40985;53.180;5.800;2023-05-10T04:11:25;11.00;99.90
55091;DHT22;40985;53.180;5.800;2023-05-10T04:13:51;11.10;99.90
55091;DHT22;40985;53.180;5.800;2023-05-10T04:16:17;10.90;99.90
55091;DHT22;40985;53.180;5.800;2023-05-10T04:18:42;11.00;99.90
55091;DHT22;40985;53.180;5.800;2023-05-10T04:21:14;11.20;99.90
55091;DHT22;40985;53.180;5.800;2023-05-10T04:23:40;10.90;99.90
55091;DHT22;40985;53.180;5.800;2023-05-10T04:26:06;10.90;99.90
55091;DHT22;40985;53.180;5.800;2023-05-10T04:28:32;11.00;99.90
55091;DHT22;40985;53.180;5.800;2023-05-10T04:31:06;10.90;99.90
55091;DHT22;40985;53.180;5.800;2023-05-10T04:33:31;11.10;99.90
55091;DHT22;40985;53.180;5.800;2023-05-10T04:35:58;11.00;99.90
55091;DHT22;40985;53.180;5.800;2023-05-10T04:38:23;11.00;99.90
55091;DHT22;40985;53.180;5.800;2023-05-10T04:40:50;11.00;99.90
55091;DHT22;40985;53.180;5.800;2023-05-10T04:43:15;11.00;99.90
55091;DHT22;40985;53.180;5.800;2023-05-10T04:45:41;11.10;99.90
55091;DHT22;40985;53.180;5.800;2023-05-10T04:48:07;10.90;99.90
55091;DHT22;40985;53.180;5.800;2023-05-10T04:50:32;11.00;99.90
55091;DHT22;40985;53.180;5.800;2023-05-10T04:52:59;11.10;99.90
55091;DHT22;40985;53.180;5.800;2023-05-10T04:55:24;11.10;99.90
55091;DHT22;40985;53.180;5.800;2023-05-10T04:57:50;10.90;99.90
55091;DHT22;40985;53.180;5.800;2023-05-10T05:00:16;11.00;99.90
55091;DHT22;40985;53.180;5.800;2023-05-10T05:02:45;11.00;99.90
55091;DHT22;40985;53.180;5.800;2023-05-10T05:05:12;11.20;99.90
55091;DHT22;40985;53.180;5.800;2023-05-10T05:07:37;11.20;99.90
55091;DHT22;40985;53.180;5.800;2023-05-10T05:10:07;11.10;99.90
55091;DHT22;40985;53.180;5.800;2023-05-10T05:12:34;11.10;99.90
55091;DHT22;40985;53.180;5.800;2023-05-10T05:15:00;11.10;99.90
55091;DHT22;40985;53.180;5.800;2023-05-10T05:17:25;11.30;99.90
55091;DHT22;40985;53.180;5.800;2023-05-10T05:19:51;11.30;99.90
55091;DHT22;40985;53.180;5.800;2023-05-10T05:22:17;11.30;99.90
55091;DHT22;40985;53.180;5.800;2023-05-10T05:24:44;11.10;99.90
55091;DHT22;40985;53.180;5.800;2023-05-10T05:27:10;11.30;99.90
55091;DHT22;40985;53.180;5.800;2023-05-10T05:29:36;11.10;99.90
55091;DHT22;40985;53.180;5.800;2023-05-10T05:32:02;11.20;99.90
55091;DHT22;40985;53.180;5.800;2023-05-10T05:34:27;11.10;99.90
55091;DHT22;40985;53.180;5.800;2023-05-10T05:36:53;11.40;99.90
55091;DHT22;40985;53.180;5.800;2023-05-10T05:39:19;11.40;99.90
55091;DHT22;40985;53.180;5.800;2023-05-10T05:41:45;11.20;99.90
55091;DHT22;40985;53.180;5.800;2023-05-10T05:44:11;11.40;99.90
55091;DHT22;40985;53.180;5.800;2023-05-10T05:46:37;11.20;99.90
55091;DHT22;40985;53.180;5.800;2023-05-10T05:49:02;11.20;99.90
55091;DHT22;40985;53.180;5.800;2023-05-10T05:51:28;11.40;99.90
55091;DHT22;40985;53.180;5.800;2023-05-10T05:53:54;11.40;99.90
55091;DHT22;40985;53.180;5.800;2023-05-10T05:56:19;11.30;99.90
55091;DHT22;40985;53.180;5.800;2023-05-10T05:58:50;11.40;99.90
55091;DHT22;40985;53.180;5.800;2023-05-10T06:01:16;11.30;99.90
55091;DHT22;40985;53.180;5.800;2023-05-10T06:03:42;11.60;99.90
55091;DHT22;40985;53.180;5.800;2023-05-10T06:06:07;11.50;99.90
55091;DHT22;40985;53.180;5.800;2023-05-10T06:08:33;11.40;99.90
55091;DHT22;40985;53.180;5.800;2023-05-10T06:11:00;11.60;99.90
55091;DHT22;40985;53.180;5.800;2023-05-10T06:13:25;11.60;99.90
55091;DHT22;40985;53.180;5.800;2023-05-10T06:16:00;11.40;99.90
55091;DHT22;40985;53.180;5.800;2023-05-10T06:18:25;11.40;99.90
55091;DHT22;40985;53.180;5.800;2023-05-10T06:20:51;11.50;99.90
55091;DHT22;40985;53.180;5.800;2023-05-10T06:23:17;11.50;99.90
55091;DHT22;40985;53.180;5.800;2023-05-10T06:25:43;11.50;99.90
55091;DHT22;40985;53.180;5.800;2023-05-10T06:28:08;11.30;99.90
55091;DHT22;40985;53.180;5.800;2023-05-10T06:30:35;11.30;99.90
55091;DHT22;40985;53.180;5.800;2023-05-10T06:33:01;11.60;99.90
55091;DHT22;40985;53.180;5.800;2023-05-10T06:35:28;11.60;99.90
55091;DHT22;40985;53.180;5.800;2023-05-10T06:37:54;11.60;99.90
55091;DHT22;40985;53.180;5.800;2023-05-10T06:40:20;11.60;99.90
55091;DHT22;40985;53.180;5.800;2023-05-10T06:42:47;11.70;99.90
55091;DHT22;40985;53.180;5.800;2023-05-10T06:45:13;11.70;99.90
55091;DHT22;40985;53.180;5.800;2023-05-10T06:47:40;11.40;99.90
55091;DHT22;40985;53.180;5.800;2023-05-10T06:50:07;11.50;99.90
55091;DHT22;40985;53.180;5.800;2023-05-10T06:52:33;11.80;99.90
55091;DHT22;40985;53.180;5.800;2023-05-10T06:54:59;11.70;99.90
55091;DHT22;40985;53.180;5.800;2023-05-10T06:57:25;11.60;99.90
55091;DHT22;40985;53.180;5.800;2023-05-10T06:59:51;11.70;99.90
55091;DHT22;40985;53.180;5.800;2023-05-10T07:02:17;11.40;99.90
55091;DHT22;40985;53.180;5.800;2023-05-10T07:04:43;11.50;99.90
55091;DHT22;40985;53.180;5.800;2023-05-10T07:07:09;11.40;99.90
55091;DHT22;40985;53.180;5.800;2023-05-10T07:09:34;11.70;99.90
55091;DHT22;40985;53.180;5.800;2023-05-10T07:12:00;11.40;99.90
55091;DHT22;40985;53.180;5.800;2023-05-10T07:14:27;11.50;99.90
55091;DHT22;40985;53.180;5.800;2023-05-10T07:16:53;11.60;99.90
55091;DHT22;40985;53.180;5.800;2023-05-10T07:19:19;11.50;99.90
55091;DHT22;40985;53.180;5.800;2023-05-10T07:21:45;11.50;99.90
55091;DHT22;40985;53.180;5.800;2023-05-10T07:24:11;11.50;99.90
55091;DHT22;40985;53.180;5.800;2023-05-10T07:26:36;11.60;99.90
55091;DHT22;40985;53.180;5.800;2023-05-10T07:29:02;11.70;99.90
55091;DHT22;40985;53.180;5.800;2023-05-10T07:31:28;11.50;99.90
55091;DHT22;40985;53.180;5.800;2023-05-10T07:33:54;11.70;99.90
55091;DHT22;40985;53.180;5.800;2023-05-10T07:36:20;11.90;99.90
55091;DHT22;40985;53.180;5.800;2023-05-10T07:38:45;11.70;99.90
55091;DHT22;40985;53.180;5.800;2023-05-10T07:41:11;11.90;99.90
55091;DHT22;40985;53.180;5.800;2023-05-10T07:43:37;11.80;99.90
55091;DHT22;40985;53.180;5.800;2023-05-10T07:46:03;11.80;99.90
55091;DHT22;40985;53.180;5.800;2023-05-10T07:48:29;11.80;99.90
55091;DHT22;40985;53.180;5.800;2023-05-10T07:50:54;11.90;99.90
55091;DHT22;40985;53.180;5.800;2023-05-10T07:53:20;12.00;99.90
55091;DHT22;40985;53.180;5.800;2023-05-10T07:55:58;12.30;99.90
55091;DHT22;40985;53.180;5.800;2023-05-10T07:58:24;12.10;99.90
55091;DHT22;40985;53.180;5.800;2023-05-10T08:00:50;12.20;99.90
55091;DHT22;40985;53.180;5.800;2023-05-10T08:03:16;12.20;99.90
55091;DHT22;40985;53.180;5.800;2023-05-10T08:05:41;12.30;99.90
55091;DHT22;40985;53.180;5.800;2023-05-10T08:08:07;12.40;99.90
55091;DHT22;40985;53.180;5.800;2023-05-10T08:10:33;12.70;99.90
55091;DHT22;40985;53.180;5.800;2023-05-10T08:12:58;12.70;99.90
55091;DHT22;40985;53.180;5.800;2023-05-10T08:15:24;12.40;99.90
55091;DHT22;40985;53.180;5.800;2023-05-10T08:17:53;12.50;99.90
55091;DHT22;40985;53.180;5.800;2023-05-10T08:20:19;12.50;99.90
55091;DHT22;40985;53.180;5.800;2023-05-10T08:22:46;12.50;99.90
55091;DHT22;40985;53.180;5.800;2023-05-10T08:25:12;12.40;99.90
55091;DHT22;40985;53.180;5.800;2023-05-10T08:27:37;12.50;99.90
55091;DHT22;40985;53.180;5.800;2023-05-10T08:30:03;12.40;99.90
55091;DHT22;40985;53.180;5.800;2023-05-10T08:32:29;12.40;99.90
55091;DHT22;40985;53.180;5.800;2023-05-10T08:34:55;12.40;99.90
55091;DHT22;40985;53.180;5.800;2023-05-10T08:37:23;12.40;99.90
55091;DHT22;40985;53.180;5.800;2023-05-10T08:39:49;12.40;99.90
55091;DHT22;40985;53.180;5.800;2023-05-10T08:42:19;12.40;99.90
55091;DHT22;40985;53.180;5.800;2023-05-10T08:44:48;12.50;99.90
55091;DHT22;40985;53.180;5.800;2023-05-10T08:47:16;12.50;99.90
55091;DHT22;40985;53.180;5.800;2023-05-10T08:49:44;12.50;99.90
55091;DHT22;40985;53.180;5.800;2023-05-10T08:52:13;12.70;99.90
55091;DHT22;40985;53.180;5.800;2023-05-10T08:54:41;12.80;99.90
55091;DHT22;40985;53.180;5.800;2023-05-10T08:57:07;12.80;99.90
55091;DHT22;40985;53.180;5.800;2023-05-10T08:59:33;12.60;99.90
55091;DHT22;40985;53.180;5.800;2023-05-10T09:01:59;12.70;99.90
55091;DHT22;40985;53.180;5.800;2023-05-10T09:04:25;12.70;99.90
55091;DHT22;40985;53.180;5.800;2023-05-10T09:06:51;12.70;99.90
55091;DHT22;40985;53.180;5.800;2023-05-10T09:09:18;12.70;99.90
55091;DHT22;40985;53.180;5.800;2023-05-10T09:11:45;12.70;99.90
55091;DHT22;40985;53.180;5.800;2023-05-10T09:14:12;12.80;99.90
55091;DHT22;40985;53.180;5.800;2023-05-10T09:16:39;12.80;99.90
55091;DHT22;40985;53.180;5.800;2023-05-10T09:19:05;12.90;99.90
55091;DHT22;40985;53.180;5.800;2023-05-10T09:21:32;12.90;99.90
55091;DHT22;40985;53.180;5.800;2023-05-10T09:24:04;13.00;99.90
55091;DHT22;40985;53.180;5.800;2023-05-10T09:26:30;13.00;99.90
55091;DHT22;40985;53.180;5.800;2023-05-10T09:28:57;13.10;99.90
55091;DHT22;40985;53.180;5.800;2023-05-10T09:31:53;13.00;99.90
55091;DHT22;40985;53.180;5.800;2023-05-10T09:34:31;12.90;99.90
55091;DHT22;40985;53.180;5.800;2023-05-10T09:36:59;13.00;99.90
55091;DHT22;40985;53.180;5.800;2023-05-10T09:39:33;13.00;99.90
55091;DHT22;40985;53.180;5.800;2023-05-10T09:42:03;13.00;99.90
55091;DHT22;40985;53.180;5.800;2023-05-10T09:44:29;13.00;99.90
55091;DHT22;40985;53.180;5.800;2023-05-10T09:46:56;13.10;99.90
55091;DHT22;40985;53.180;5.800;2023-05-10T09:49:22;13.10;99.90
55091;DHT22;40985;53.180;5.800;2023-05-10T09:51:57;13.20;99.90
55091;DHT22;40985;53.180;5.800;2023-05-10T09:54:24;13.40;99.90
55091;DHT22;40985;53.180;5.800;2023-05-10T09:56:50;13.20;99.90
55091;DHT22;40985;53.180;5.800;2023-05-10T09:59:16;13.30;99.90
55091;DHT22;40985;53.180;5.800;2023-05-10T10:01:49;13.30;99.90
55091;DHT22;40985;53.180;5.800;2023-05-10T10:04:15;13.30;99.90
55091;DHT22;40985;53.180;5.800;2023-05-10T10:06:41;13.30;99.90
55091;DHT22;40985;53.180;5.800;2023-05-10T10:09:07;13.50;99.90
55091;DHT22;40985;53.180;5.800;2023-05-10T10:11:37;13.40;99.90
55091;DHT22;40985;53.180;5.800;2023-05-10T10:14:03;13.60;99.90
55091;DHT22;40985;53.180;5.800;2023-05-10T10:16:30;13.60;99.90
55091;DHT22;40985;53.180;5.800;2023-05-10T10:18:56;13.50;99.90
55091;DHT22;40985;53.180;5.800;2023-05-10T10:21:22;13.60;99.90
55091;DHT22;40985;53.180;5.800;2023-05-10T10:23:48;13.70;99.90
55091;DHT22;40985;53.180;5.800;2023-05-10T10:26:15;13.90;99.90
55091;DHT22;40985;53.180;5.800;2023-05-10T10:31:45;13.90;99.90
55091;DHT22;40985;53.180;5.800;2023-05-10T10:36:47;13.90;99.90
55091;DHT22;40985;53.180;5.800;2023-05-10T10:39:14;14.00;99.90
55091;DHT22;40985;53.180;5.800;2023-05-10T10:41:51;14.10;99.90
55091;DHT22;40985;53.180;5.800;2023-05-10T10:49:48;14.10;99.90
55091;DHT22;40985;53.180;5.800;2023-05-10T10:52:34;14.20;99.90
55091;DHT22;40985;53.180;5.800;2023-05-10T10:55:01;14.20;99.90
55091;DHT22;40985;53.180;5.800;2023-05-10T10:57:28;14.50;99.90
55091;DHT22;40985;53.180;5.800;2023-05-10T11:02:50;14.60;99.90
55091;DHT22;40985;53.180;5.800;2023-05-10T11:11:12;14.40;99.90
55091;DHT22;40985;53.180;5.800;2023-05-10T11:13:39;14.20;99.90
55091;DHT22;40985;53.180;5.800;2023-05-10T11:16:22;14.20;99.90
55091;DHT22;40985;53.180;5.800;2023-05-10T11:19:02;14.00;99.90
55091;DHT22;40985;53.180;5.800;2023-05-10T11:21:32;14.10;99.90
55091;DHT22;40985;53.180;5.800;2023-05-10T11:24:00;14.20;99.90
55091;DHT22;40985;53.180;5.800;2023-05-10T11:26:31;14.10;99.90
55091;DHT22;40985;53.180;5.800;2023-05-10T11:28:57;14.20;99.90
55091;DHT22;40985;53.180;5.800;2023-05-10T11:31:27;14.20;99.90
55091;DHT22;40985;53.180;5.800;2023-05-10T11:33:56;14.20;99.90
55091;DHT22;40985;53.180;5.800;2023-05-10T11:36:26;14.20;99.90
55091;DHT22;40985;53.180;5.800;2023-05-10T11:38:53;14.20;99.90
55091;DHT22;40985;53.180;5.800;2023-05-10T11:41:20;14.40;99.90
55091;DHT22;40985;53.180;5.800;2023-05-10T11:43:49;14.40;99.90
55091;DHT22;40985;53.180;5.800;2023-05-10T11:46:17;14.40;99.90
55091;DHT22;40985;53.180;5.800;2023-05-10T11:48:43;14.60;99.90
55091;DHT22;40985;53.180;5.800;2023-05-10T11:51:10;14.90;99.90
55091;DHT22;40985;53.180;5.800;2023-05-10T11:53:36;15.10;99.90
55091;DHT22;40985;53.180;5.800;2023-05-10T11:58:31;15.40;99.90
55091;DHT22;40985;53.180;5.800;2023-05-10T12:01:01;15.00;99.90
55091;DHT22;40985;53.180;5.800;2023-05-10T12:03:27;15.20;99.90
55091;DHT22;40985;53.180;5.800;2023-05-10T12:05:54;15.20;99.90
55091;DHT22;40985;53.180;5.800;2023-05-10T12:08:23;15.50;99.90
55091;DHT22;40985;53.180;5.800;2023-05-10T12:10:49;15.30;99.90
55091;DHT22;40985;53.180;5.800;2023-05-10T12:13:15;15.50;99.90
55091;DHT22;40985;53.180;5.800;2023-05-10T12:15:41;15.50;99.90
55091;DHT22;40985;53.180;5.800;2023-05-10T12:18:11;15.60;99.90
55091;DHT22;40985;53.180;5.800;2023-05-10T12:20:38;15.70;99.90
55091;DHT22;40985;53.180;5.800;2023-05-10T12:23:04;15.80;99.90
55091;DHT22;40985;53.180;5.800;2023-05-10T12:25:33;15.90;99.90
55091;DHT22;40985;53.180;5.800;2023-05-10T12:28:00;16.10;99.90
55091;DHT22;40985;53.180;5.800;2023-05-10T12:30:30;16.10;99.90
55091;DHT22;40985;53.180;5.800;2023-05-10T12:33:13;16.00;99.90
55091;DHT22;40985;53.180;5.800;2023-05-10T12:35:47;16.20;99.90
55091;DHT22;40985;53.180;5.800;2023-05-10T12:38:28;16.00;99.90
55091;DHT22;40985;53.180;5.800;2023-05-10T12:40:56;16.60;99.90
55091;DHT22;40985;53.180;5.800;2023-05-10T12:43:22;16.90;99.90
55091;DHT22;40985;53.180;5.800;2023-05-10T12:45:48;17.40;99.90
55091;DHT22;40985;53.180;5.800;2023-05-10T12:48:14;17.00;99.90
55091;DHT22;40985;53.180;5.800;2023-05-10T12:50:40;17.00;99.90
55091;DHT22;40985;53.180;5.800;2023-05-10T12:53:06;16.90;99.90
55091;DHT22;40985;53.180;5.800;2023-05-10T12:55:31;16.70;99.90
55091;DHT22;40985;53.180;5.800;2023-05-10T12:57:57;16.40;99.90
55091;DHT22;40985;53.180;5.800;2023-05-10T13:00:23;16.30;99.90
55091;DHT22;40985;53.180;5.800;2023-05-10T13:02:49;16.20;99.90
55091;DHT22;40985;53.180;5.800;2023-05-10T13:05:14;16.10;99.90
55091;DHT22;40985;53.180;5.800;2023-05-10T13:07:40;16.10;99.90
55091;DHT22;40985;53.180;5.800;2023-05-10T13:10:06;15.90;99.90
55091;DHT22;40985;53.180;5.800;2023-05-10T13:12:32;16.00;99.90
55091;DHT22;40985;53.180;5.800;2023-05-10T13:14:58;16.00;99.90
55091;DHT22;40985;53.180;5.800;2023-05-10T13:17:25;16.00;99.90
55091;DHT22;40985;53.180;5.800;2023-05-10T13:19:51;16.00;99.90
55091;DHT22;40985;53.180;5.800;2023-05-10T13:22:17;16.10;99.90
55091;DHT22;40985;53.180;5.800;2023-05-10T13:24:42;16.00;99.90
55091;DHT22;40985;53.180;5.800;2023-05-10T13:27:08;16.00;99.90
55091;DHT22;40985;53.180;5.800;2023-05-10T13:29:34;16.10;99.90
55091;DHT22;40985;53.180;5.800;2023-05-10T13:31:59;16.00;99.90
55091;DHT22;40985;53.180;5.800;2023-05-10T13:34:26;15.90;99.90
55091;DHT22;40985;53.180;5.800;2023-05-10T13:36:53;15.80;99.90
55091;DHT22;40985;53.180;5.800;2023-05-10T13:39:20;16.10;99.90
55091;DHT22;40985;53.180;5.800;2023-05-10T13:41:46;15.80;99.90
55091;DHT22;40985;53.180;5.800;2023-05-10T13:44:13;16.00;99.90
55091;DHT22;40985;53.180;5.800;2023-05-10T13:46:40;15.90;99.90
55091;DHT22;40985;53.180;5.800;2023-05-10T13:49:06;15.80;99.90
55091;DHT22;40985;53.180;5.800;2023-05-10T13:51:33;15.70;99.90
55091;DHT22;40985;53.180;5.800;2023-05-10T13:53:59;15.70;99.90
55091;DHT22;40985;53.180;5.800;2023-05-10T13:56:25;15.90;99.90
55091;DHT22;40985;53.180;5.800;2023-05-10T13:58:50;15.60;99.90
55091;DHT22;40985;53.180;5.800;2023-05-10T14:01:16;15.60;99.90
55091;DHT22;40985;53.180;5.800;2023-05-10T14:03:42;15.80;99.90
55091;DHT22;40985;53.180;5.800;2023-05-10T14:06:08;15.90;99.90
55091;DHT22;40985;53.180;5.800;2023-05-10T14:08:35;15.70;99.90
55091;DHT22;40985;53.180;5.800;2023-05-10T14:11:01;15.90;99.90
55091;DHT22;40985;53.180;5.800;2023-05-10T14:13:26;15.80;99.90
55091;DHT22;40985;53.180;5.800;2023-05-10T14:15:53;16.20;99.90
55091;DHT22;40985;53.180;5.800;2023-05-10T14:18:19;16.40;99.90
55091;DHT22;40985;53.180;5.800;2023-05-10T14:20:44;16.50;99.90
55091;DHT22;40985;53.180;5.800;2023-05-10T14:23:10;16.40;99.90
55091;DHT22;40985;53.180;5.800;2023-05-10T14:25:36;16.10;99.90
55091;DHT22;40985;53.180;5.800;2023-05-10T14:28:03;16.40;99.90
55091;DHT22;40985;53.180;5.800;2023-05-10T14:30:29;16.30;99.90
55091;DHT22;40985;53.180;5.800;2023-05-10T14:32:54;16.20;99.90
55091;DHT22;40985;53.180;5.800;2023-05-10T14:35:20;16.20;99.90
55091;DHT22;40985;53.180;5.800;2023-05-10T14:37:46;15.90;99.90
55091;DHT22;40985;53.180;5.800;2023-05-10T14:40:12;16.00;99.90
55091;DHT22;40985;53.180;5.800;2023-05-10T14:42:38;15.60;99.90
55091;DHT22;40985;53.180;5.800;2023-05-10T14:45:04;16.00;99.90
55091;DHT22;40985;53.180;5.800;2023-05-10T14:47:30;16.00;99.90
55091;DHT22;40985;53.180;5.800;2023-05-10T14:49:56;15.70;99.90
55091;DHT22;40985;53.180;5.800;2023-05-10T14:52:21;16.20;99.90
55091;DHT22;40985;53.180;5.800;2023-05-10T14:54:47;16.10;99.90
55091;DHT22;40985;53.180;5.800;2023-05-10T14:57:13;15.80;99.90
55091;DHT22;40985;53.180;5.800;2023-05-10T14:59:39;15.80;99.90
55091;DHT22;40985;53.180;5.800;2023-05-10T15:02:05;15.30;99.90
55091;DHT22;40985;53.180;5.800;2023-05-10T15:04:31;15.40;99.90
55091;DHT22;40985;53.180;5.800;2023-05-10T15:06:56;15.40;99.90
55091;DHT22;40985;53.180;5.800;2023-05-10T15:09:24;15.30;99.90
55091;DHT22;40985;53.180;5.800;2023-05-10T15:11:50;15.60;99.90
55091;DHT22;40985;53.180;5.800;2023-05-10T15:14:16;15.50;99.90
55091;DHT22;40985;53.180;5.800;2023-05-10T15:16:41;15.70;99.90
55091;DHT22;40985;53.180;5.800;2023-05-10T15:19:07;15.40;99.90
55091;DHT22;40985;53.180;5.800;2023-05-10T15:21:33;15.30;99.90
55091;DHT22;40985;53.180;5.800;2023-05-10T15:24:05;15.20;99.90
55091;DHT22;40985;53.180;5.800;2023-05-10T15:26:30;15.10;99.90
55091;DHT22;40985;53.180;5.800;2023-05-10T15:28:56;14.90;99.90
55091;DHT22;40985;53.180;5.800;2023-05-10T15:31:22;15.00;99.90
55091;DHT22;40985;53.180;5.800;2023-05-10T15:33:48;14.90;99.90
55091;DHT22;40985;53.180;5.800;2023-05-10T15:36:13;14.90;99.90
55091;DHT22;40985;53.180;5.800;2023-05-10T15:38:39;15.00;99.90
55091;DHT22;40985;53.180;5.800;2023-05-10T15:41:05;15.10;99.90
55091;DHT22;40985;53.180;5.800;2023-05-10T15:43:31;15.20;99.90
55091;DHT22;40985;53.180;5.800;2023-05-10T15:45:56;14.90;99.90
55091;DHT22;40985;53.180;5.800;2023-05-10T15:48:22;14.80;99.90
55091;DHT22;40985;53.180;5.800;2023-05-10T15:50:48;14.90;99.90
55091;DHT22;40985;53.180;5.800;2023-05-10T15:53:13;14.80;99.90
55091;DHT22;40985;53.180;5.800;2023-05-10T15:55:39;15.00;99.90
55091;DHT22;40985;53.180;5.800;2023-05-10T15:58:05;15.10;99.90
55091;DHT22;40985;53.180;5.800;2023-05-10T16:00:31;15.00;99.90
55091;DHT22;40985;53.180;5.800;2023-05-10T16:02:56;14.60;99.90
55091;DHT22;40985;53.180;5.800;2023-05-10T16:05:22;14.90;99.90
55091;DHT22;40985;53.180;5.800;2023-05-10T16:07:48;14.90;99.90